Time;durP1;ratioP1;P1;durP2;ratioP2;P2;SDS_P1;SDS_P2;PMS_P1;PMS_P2;Temp;Humidity;BMP_temperature;BMP_pressure;BME280_temperature;BME280_humidity;BME280_pressure;Samples;Min_cycle;Max_cycle;Signal;HPM_P1;HPM_P2
2022/05/06 00:07:04;;;;;;;0.20;0.00;;;15.70;99.90;;;;;;25657396;23;20190;-70
2022/05/06 00:17:09;;;;;;;0.20;0.10;;;15.50;99.90;;;;;;25634577;23;20457;-70
2022/05/06 00:27:13;;;;;;;0.20;0.10;;;15.30;99.90;;;;;;25659628;23;20209;-71
2022/05/06 00:37:18;;;;;;;0.20;0.10;;;15.30;99.90;;;;;;25660320;23;20177;-71
2022/05/06 00:47:23;;;;;;;0.20;0.10;;;15.00;99.90;;;;;;25656441;23;20196;-70
2022/05/06 00:57:30;;;;;;;0.20;0.10;;;15.00;99.90;;;;;;25650948;23;20210;-71
2022/05/06 01:07:34;;;;;;;0.20;0.00;;;14.60;99.90;;;;;;25649303;23;20508;-72
2022/05/06 01:17:39;;;;;;;0.20;0.00;;;14.40;99.90;;;;;;25650867;23;20189;-70
2022/05/06 01:27:47;;;;;;;0.20;0.10;;;14.20;99.90;;;;;;25650164;23;20194;-71
2022/05/06 01:37:54;;;;;;;0.20;0.10;;;13.90;99.90;;;;;;25648242;23;20159;-70
2022/05/06 01:48:01;;;;;;;0.20;0.00;;;13.70;99.90;;;;;;25624099;23;20213;-70
2022/05/06 01:58:06;;;;;;;0.20;0.10;;;14.50;99.90;;;;;;25597109;23;1270582;-70
2022/05/06 02:08:11;;;;;;;0.43;0.43;;;14.70;99.90;;;;;;25652941;23;20186;-70
2022/05/06 02:18:15;;;;;;;0.20;0.10;;;14.70;99.90;;;;;;25627946;23;20462;-71
2022/05/06 02:28:20;;;;;;;0.20;0.07;;;14.60;99.90;;;;;;25654331;23;20194;-70
2022/05/06 02:38:25;;;;;;;0.20;0.10;;;14.50;99.90;;;;;;25652924;23;20166;-71
2022/05/06 02:48:30;;;;;;;0.20;0.10;;;13.90;99.90;;;;;;25651509;23;20197;-72
2022/05/06 02:58:35;;;;;;;0.20;0.10;;;14.20;99.90;;;;;;25653844;23;20206;-73
2022/05/06 03:08:40;;;;;;;0.20;0.10;;;14.20;99.90;;;;;;25650330;23;20186;-72
2022/05/06 03:18:44;;;;;;;0.20;0.00;;;14.20;99.90;;;;;;25654184;23;20159;-70
2022/05/06 03:28:49;;;;;;;0.20;0.00;;;14.10;99.90;;;;;;25650616;23;20189;-72
2022/05/06 03:38:53;;;;;;;0.20;0.10;;;14.00;99.90;;;;;;25651603;23;20155;-72
2022/05/06 03:49:01;;;;;;;0.20;0.07;;;14.60;99.90;;;;;;25621275;23;20194;-72
2022/05/06 03:59:05;;;;;;;0.20;0.10;;;14.50;99.90;;;;;;25649277;23;20212;-74
2022/05/06 04:09:12;;;;;;;0.20;0.10;;;14.40;99.90;;;;;;25650913;23;20190;-72
2022/05/06 04:19:16;;;;;;;0.20;0.10;;;14.30;99.90;;;;;;25647896;23;20158;-73
2022/05/06 04:29:21;;;;;;;0.20;0.10;;;14.10;99.90;;;;;;25633801;23;20201;-72
2022/05/06 04:39:25;;;;;;;0.20;0.10;;;14.50;99.90;;;;;;25655153;23;20181;-73
2022/05/06 04:49:30;;;;;;;0.20;0.10;;;14.50;99.90;;;;;;25659108;23;20190;-73
2022/05/06 04:59:34;;;;;;;0.20;0.10;;;14.20;99.90;;;;;;25652531;23;20224;-72
2022/05/06 05:09:39;;;;;;;0.20;0.10;;;14.00;99.90;;;;;;25628545;23;20190;-73
2022/05/06 05:19:43;;;;;;;0.20;0.10;;;13.80;99.90;;;;;;25654031;23;20166;-70
2022/05/06 05:29:48;;;;;;;0.20;0.00;;;14.20;99.90;;;;;;25628448;23;20217;-72
2022/05/06 05:39:52;;;;;;;0.20;0.10;;;14.50;99.90;;;;;;25625748;23;20171;-71
2022/05/06 05:49:58;;;;;;;0.20;0.10;;;14.50;99.90;;;;;;25653776;23;20197;-70
2022/05/06 06:00:03;;;;;;;0.20;0.10;;;15.00;99.90;;;;;;25621644;23;20206;-72
2022/05/06 06:10:09;;;;;;;0.20;0.00;;;15.40;99.90;;;;;;25620607;23;20205;-71
2022/05/06 06:20:13;;;;;;;0.20;0.10;;;15.80;99.90;;;;;;25623073;23;20473;-73
2022/05/06 06:30:18;;;;;;;0.20;0.00;;;16.20;99.90;;;;;;25622615;23;20239;-73
2022/05/06 06:40:28;;;;;;;0.20;0.10;;;16.40;99.90;;;;;;25624133;23;20173;-72
2022/05/06 06:50:33;;;;;;;0.20;0.10;;;16.70;99.90;;;;;;25647188;23;20197;-72
2022/05/06 07:00:37;;;;;;;0.20;0.10;;;17.00;99.90;;;;;;25650220;23;20209;-73
2022/05/06 07:21:10;;;;;;;0.20;0.10;;;17.40;99.90;;;;;;25623975;23;20358;-72
2022/05/06 07:31:15;;;;;;;0.20;0.10;;;18.00;99.90;;;;;;25620705;23;20197;-73
2022/05/06 07:41:19;;;;;;;0.20;0.10;;;18.00;99.90;;;;;;25621960;23;20438;-73
2022/05/06 07:51:24;;;;;;;0.20;0.00;;;18.20;99.90;;;;;;25613851;23;20193;-74
2022/05/06 08:11:47;;;;;;;0.20;0.00;;;18.50;99.90;;;;;;25594098;23;20216;-73
2022/05/06 08:21:51;;;;;;;0.20;0.10;;;18.80;99.90;;;;;;25624872;23;20166;-72
2022/05/06 08:31:56;;;;;;;0.20;0.10;;;19.20;99.90;;;;;;25630981;23;20202;-73
2022/05/06 08:42:02;;;;;;;0.20;0.00;;;19.30;99.90;;;;;;25627093;23;20166;-73
2022/05/06 08:52:09;;;;;;;0.20;0.10;;;19.60;99.90;;;;;;25649517;23;20213;-72
2022/05/06 09:02:13;;;;;;;0.20;0.00;;;20.00;99.90;;;;;;25650175;23;20461;-74
2022/05/06 09:12:45;;;;;;;0.20;0.00;;;19.40;99.90;;;;;;25639378;23;20197;-74
2022/05/06 09:22:50;;;;;;;0.20;0.10;;;19.70;99.90;;;;;;25639099;23;20258;-74
2022/05/06 09:32:56;;;;;;;0.20;0.10;;;20.10;99.90;;;;;;25587844;23;20178;-73
2022/05/06 09:43:00;;;;;;;0.20;0.00;;;19.50;99.90;;;;;;25641136;23;20178;-72
2022/05/06 09:53:07;;;;;;;0.20;0.10;;;19.50;99.90;;;;;;25608866;23;20246;-73
2022/05/06 10:03:12;;;;;;;0.20;0.10;;;19.40;99.90;;;;;;25639602;23;20253;-74
2022/05/06 10:13:22;;;;;;;0.20;0.00;;;19.90;99.90;;;;;;25630076;23;20170;-72
2022/05/06 10:23:47;;;;;;;0.20;0.00;;;19.70;99.90;;;;;;25639924;23;20194;-74
2022/05/06 10:34:10;;;;;;;0.20;0.10;;;20.20;99.90;;;;;;25635912;23;20170;-73
2022/05/06 10:44:35;;;;;;;0.20;0.00;;;20.60;99.90;;;;;;25612562;23;20190;-72
2022/05/06 10:54:41;;;;;;;0.20;0.10;;;21.00;99.90;;;;;;25610481;23;20217;-70
2022/05/06 11:04:51;;;;;;;0.20;0.10;;;21.40;99.90;;;;;;25635150;23;20190;-72
2022/05/06 11:14:56;;;;;;;0.20;0.00;;;22.00;99.90;;;;;;25635302;23;20174;-71
2022/05/06 11:25:02;;;;;;;0.20;0.10;;;22.20;99.90;;;;;;25634248;23;20186;-72
2022/05/06 11:35:19;;;;;;;0.20;0.00;;;21.90;99.90;;;;;;25608231;23;20212;-70
2022/05/06 11:55:47;;;;;;;0.30;0.10;;;23.90;99.90;;;;;;25636235;23;20217;-73
2022/05/06 12:06:04;;;;;;;0.20;0.00;;;23.80;99.90;;;;;;25609386;23;20378;-73
2022/05/06 12:16:11;;;;;;;0.20;0.00;;;23.70;99.90;;;;;;25633535;23;20170;-73
2022/05/06 12:26:30;;;;;;;1.27;1.27;;;24.30;99.90;;;;;;25604866;23;20224;-72
2022/05/06 12:36:36;;;;;;;0.57;0.45;;;25.40;99.90;;;;;;25628424;23;20150;-72
2022/05/06 12:46:41;;;;;;;0.20;0.00;;;25.10;99.90;;;;;;25635601;23;20194;-73
2022/05/06 12:56:46;;;;;;;0.20;0.10;;;25.40;99.90;;;;;;25635300;23;20194;-74
2022/05/06 13:06:50;;;;;;;0.20;0.00;;;25.20;99.90;;;;;;25640209;23;20207;-73
2022/05/06 16:44:18;;;;;;;0.20;0.00;;;21.60;99.90;;;;;;25641634;23;20206;-76
2022/05/06 16:54:22;;;;;;;0.30;0.30;;;21.40;99.90;;;;;;25622457;23;20197;-75
2022/05/06 17:04:27;;;;;;;0.20;0.10;;;21.40;99.90;;;;;;25616391;23;20197;-76
2022/05/06 17:14:31;;;;;;;0.20;0.00;;;22.10;99.90;;;;;;25622782;23;20219;-76
2022/05/06 17:24:37;;;;;;;0.20;0.00;;;24.10;99.90;;;;;;25646681;23;20193;-76
2022/05/06 17:34:40;;;;;;;0.20;0.10;;;23.80;99.90;;;;;;25647950;23;20177;-77
2022/05/06 17:44:46;;;;;;;0.20;0.00;;;22.70;99.90;;;;;;25655721;23;20996;-74
2022/05/06 17:54:49;;;;;;;0.20;0.00;;;23.70;99.90;;;;;;25626450;23;20229;-76
2022/05/06 18:04:55;;;;;;;0.20;0.00;;;21.80;99.90;;;;;;25653475;23;20186;-76
2022/05/06 18:14:59;;;;;;;0.20;0.20;;;20.80;99.90;;;;;;25653990;23;20159;-76
2022/05/06 18:25:05;;;;;;;0.20;0.10;;;20.50;99.90;;;;;;25622888;23;20230;-77
2022/05/06 18:35:10;;;;;;;0.20;0.00;;;20.30;99.90;;;;;;25625696;23;20181;-72
2022/05/06 18:45:15;;;;;;;0.20;0.10;;;19.70;99.90;;;;;;25653119;23;20209;-78
2022/05/06 18:55:20;;;;;;;0.20;0.00;;;19.60;99.90;;;;;;25652364;23;20194;-77
2022/05/06 19:05:27;;;;;;;0.20;0.00;;;19.20;99.90;;;;;;25650840;23;20205;-75
2022/05/06 19:15:31;;;;;;;0.20;0.00;;;18.60;99.90;;;;;;25624399;23;20173;-74
2022/05/06 19:25:37;;;;;;;0.20;0.00;;;18.30;99.90;;;;;;25652422;23;20189;-76
2022/05/06 19:35:41;;;;;;;0.20;0.10;;;18.10;99.90;;;;;;25651895;23;20166;-77
2022/05/06 19:45:46;;;;;;;0.20;0.10;;;17.90;99.90;;;;;;25652690;23;20197;-77
2022/05/06 19:55:50;;;;;;;0.20;0.10;;;17.80;99.90;;;;;;25631099;23;20357;-77
2022/05/06 20:05:55;;;;;;;0.20;0.10;;;17.70;99.90;;;;;;25662630;23;20506;-78
2022/05/06 20:15:59;;;;;;;0.20;0.10;;;17.40;99.90;;;;;;25638318;23;20560;-75
2022/05/06 20:26:05;;;;;;;0.20;0.10;;;17.20;99.90;;;;;;25636208;23;20214;-74
2022/05/06 20:36:10;;;;;;;0.20;0.10;;;17.20;99.90;;;;;;25653952;23;20162;-72
2022/05/06 20:46:16;;;;;;;0.20;0.00;;;17.00;99.90;;;;;;25652599;23;20178;-73
2022/05/06 20:56:20;;;;;;;0.20;0.10;;;16.60;99.90;;;;;;25630856;23;20241;-73
2022/05/06 21:06:25;;;;;;;0.20;0.10;;;16.50;99.90;;;;;;25618638;23;20576;-70
2022/05/06 21:16:29;;;;;;;0.20;0.10;;;16.30;99.90;;;;;;25618111;23;20358;-73
2022/05/06 21:26:34;;;;;;;0.20;0.10;;;16.10;99.90;;;;;;25642661;23;20190;-73
2022/05/06 21:36:38;;;;;;;0.20;0.10;;;15.80;99.90;;;;;;25640557;23;20714;-71
2022/05/06 21:46:43;;;;;;;0.20;0.00;;;15.90;99.90;;;;;;25640363;23;20186;-71
2022/05/06 21:56:48;;;;;;;0.20;0.10;;;16.10;99.90;;;;;;25639260;23;20194;-71
2022/05/06 22:06:54;;;;;;;0.20;0.10;;;16.00;99.90;;;;;;25637787;23;20218;-73
2022/05/06 22:16:57;;;;;;;0.20;0.10;;;15.80;99.90;;;;;;25644230;23;20173;-70
2022/05/06 22:27:03;;;;;;;0.20;0.00;;;15.70;99.90;;;;;;25648516;23;20209;-73
2022/05/06 22:37:06;;;;;;;0.20;0.10;;;15.70;99.90;;;;;;25647872;23;20190;-72
2022/05/06 22:47:12;;;;;;;0.20;0.10;;;15.30;99.90;;;;;;25640228;23;20256;-73
2022/05/06 22:57:16;;;;;;;0.20;0.10;;;15.30;99.90;;;;;;25609556;23;20760;-73
2022/05/06 23:07:22;;;;;;;0.83;0.73;;;15.50;99.90;;;;;;25640154;23;20198;-71
2022/05/06 23:17:26;;;;;;;0.20;0.10;;;16.00;99.90;;;;;;25645567;23;20177;-72
2022/05/06 23:27:31;;;;;;;0.20;0.10;;;16.20;99.90;;;;;;25645214;23;20477;-71
2022/05/06 23:37:34;;;;;;;0.20;0.10;;;16.40;99.90;;;;;;25609022;23;20190;-73
2022/05/06 23:47:40;;;;;;;0.20;0.10;;;16.50;99.90;;;;;;25638030;23;20217;-73
2022/05/06 23:57:44;;;;;;;0.20;0.10;;;16.40;99.90;;;;;;25612793;23;20186;-72
